sensor_id;sensor_type;location;lat;lon;timestamp;P1;durP1;ratioP1;P2;durP2;ratioP2
61741;SDS011;47650;49.848;9.620;2023-07-31T00:00:11;6.70;;;2.13;;
61741;SDS011;47650;49.848;9.620;2023-07-31T00:02:38;7.47;;;2.30;;
61741;SDS011;47650;49.848;9.620;2023-07-31T00:05:05;7.15;;;1.90;;
61741;SDS011;47650;49.848;9.620;2023-07-31T00:07:33;4.80;;;1.70;;
61741;SDS011;47650;49.848;9.620;2023-07-31T00:09:58;5.22;;;1.77;;
61741;SDS011;47650;49.848;9.620;2023-07-31T00:12:24;5.18;;;1.92;;
61741;SDS011;47650;49.848;9.620;2023-07-31T00:14:49;4.68;;;2.00;;
61741;SDS011;47650;49.848;9.620;2023-07-31T00:17:16;5.05;;;2.25;;
61741;SDS011;47650;49.848;9.620;2023-07-31T00:19:42;7.90;;;2.10;;
61741;SDS011;47650;49.848;9.620;2023-07-31T00:22:07;4.75;;;2.33;;
61741;SDS011;47650;49.848;9.620;2023-07-31T00:24:34;4.80;;;1.90;;
61741;SDS011;47650;49.848;9.620;2023-07-31T00:26:59;5.30;;;2.03;;
61741;SDS011;47650;49.848;9.620;2023-07-31T00:29:25;5.25;;;1.88;;
61741;SDS011;47650;49.848;9.620;2023-07-31T00:31:50;3.97;;;1.80;;
61741;SDS011;47650;49.848;9.620;2023-07-31T00:34:18;4.72;;;2.08;;
61741;SDS011;47650;49.848;9.620;2023-07-31T00:36:43;5.30;;;2.05;;
61741;SDS011;47650;49.848;9.620;2023-07-31T00:39:10;4.82;;;1.88;;
61741;SDS011;47650;49.848;9.620;2023-07-31T00:41:35;5.55;;;2.08;;
61741;SDS011;47650;49.848;9.620;2023-07-31T00:44:01;5.32;;;1.90;;
61741;SDS011;47650;49.848;9.620;2023-07-31T00:46:27;4.45;;;2.00;;
61741;SDS011;47650;49.848;9.620;2023-07-31T00:48:52;5.35;;;1.70;;
61741;SDS011;47650;49.848;9.620;2023-07-31T00:51:18;7.28;;;1.90;;
61741;SDS011;47650;49.848;9.620;2023-07-31T00:53:43;5.63;;;2.08;;
61741;SDS011;47650;49.848;9.620;2023-07-31T00:56:09;5.38;;;2.30;;
61741;SDS011;47650;49.848;9.620;2023-07-31T00:58:36;7.25;;;1.77;;
61741;SDS011;47650;49.848;9.620;2023-07-31T01:01:01;6.10;;;2.05;;
61741;SDS011;47650;49.848;9.620;2023-07-31T01:03:29;4.03;;;1.67;;
61741;SDS011;47650;49.848;9.620;2023-07-31T01:08:33;4.72;;;2.25;;
61741;SDS011;47650;49.848;9.620;2023-07-31T01:21:29;5.75;;;2.03;;
61741;SDS011;47650;49.848;9.620;2023-07-31T01:26:34;5.55;;;1.92;;
61741;SDS011;47650;49.848;9.620;2023-07-31T01:32:05;9.48;;;2.05;;
61741;SDS011;47650;49.848;9.620;2023-07-31T01:34:34;4.45;;;1.50;;
61741;SDS011;47650;49.848;9.620;2023-07-31T01:37:01;5.18;;;1.92;;
61741;SDS011;47650;49.848;9.620;2023-07-31T01:39:27;7.32;;;2.50;;
61741;SDS011;47650;49.848;9.620;2023-07-31T01:41:52;4.10;;;1.67;;
61741;SDS011;47650;49.848;9.620;2023-07-31T01:44:17;4.90;;;1.98;;
61741;SDS011;47650;49.848;9.620;2023-07-31T01:46:53;5.68;;;1.80;;
61741;SDS011;47650;49.848;9.620;2023-07-31T01:49:18;4.30;;;2.03;;
61741;SDS011;47650;49.848;9.620;2023-07-31T01:51:44;6.75;;;2.35;;
61741;SDS011;47650;49.848;9.620;2023-07-31T01:54:09;5.13;;;2.17;;
61741;SDS011;47650;49.848;9.620;2023-07-31T01:56:36;7.38;;;2.00;;
61741;SDS011;47650;49.848;9.620;2023-07-31T01:59:02;5.38;;;2.05;;
61741;SDS011;47650;49.848;9.620;2023-07-31T02:01:34;4.55;;;1.98;;
61741;SDS011;47650;49.848;9.620;2023-07-31T02:04:00;5.10;;;2.15;;
61741;SDS011;47650;49.848;9.620;2023-07-31T02:06:26;5.53;;;2.30;;
61741;SDS011;47650;49.848;9.620;2023-07-31T02:08:59;4.70;;;2.45;;
61741;SDS011;47650;49.848;9.620;2023-07-31T02:11:25;6.43;;;1.95;;
61741;SDS011;47650;49.848;9.620;2023-07-31T02:13:50;6.68;;;2.20;;
61741;SDS011;47650;49.848;9.620;2023-07-31T02:16:15;6.18;;;2.65;;
61741;SDS011;47650;49.848;9.620;2023-07-31T02:18:41;5.93;;;2.30;;
61741;SDS011;47650;49.848;9.620;2023-07-31T02:21:08;6.28;;;2.40;;
61741;SDS011;47650;49.848;9.620;2023-07-31T02:23:33;4.47;;;1.88;;
61741;SDS011;47650;49.848;9.620;2023-07-31T02:26:00;5.72;;;2.15;;
61741;SDS011;47650;49.848;9.620;2023-07-31T02:28:26;9.05;;;2.22;;
61741;SDS011;47650;49.848;9.620;2023-07-31T02:30:54;4.55;;;2.28;;
61741;SDS011;47650;49.848;9.620;2023-07-31T02:33:19;6.63;;;2.10;;
61741;SDS011;47650;49.848;9.620;2023-07-31T02:35:46;6.50;;;2.00;;
61741;SDS011;47650;49.848;9.620;2023-07-31T02:38:13;6.45;;;2.95;;
61741;SDS011;47650;49.848;9.620;2023-07-31T02:40:40;5.68;;;2.50;;
61741;SDS011;47650;49.848;9.620;2023-07-31T02:43:07;4.82;;;2.42;;
61741;SDS011;47650;49.848;9.620;2023-07-31T02:45:33;6.05;;;2.30;;
61741;SDS011;47650;49.848;9.620;2023-07-31T02:48:06;6.10;;;2.58;;
61741;SDS011;47650;49.848;9.620;2023-07-31T02:50:31;6.43;;;2.38;;
61741;SDS011;47650;49.848;9.620;2023-07-31T02:52:57;7.00;;;2.55;;
61741;SDS011;47650;49.848;9.620;2023-07-31T02:57:54;4.18;;;2.20;;
61741;SDS011;47650;49.848;9.620;2023-07-31T03:00:19;6.03;;;2.08;;
61741;SDS011;47650;49.848;9.620;2023-07-31T03:02:50;5.78;;;1.98;;
61741;SDS011;47650;49.848;9.620;2023-07-31T03:05:17;3.33;;;1.90;;
61741;SDS011;47650;49.848;9.620;2023-07-31T03:07:46;4.03;;;2.10;;
61741;SDS011;47650;49.848;9.620;2023-07-31T03:10:11;4.53;;;2.05;;
61741;SDS011;47650;49.848;9.620;2023-07-31T03:12:46;6.07;;;2.58;;
61741;SDS011;47650;49.848;9.620;2023-07-31T03:15:16;5.35;;;1.95;;
61741;SDS011;47650;49.848;9.620;2023-07-31T03:17:43;5.97;;;2.30;;
61741;SDS011;47650;49.848;9.620;2023-07-31T03:20:08;4.30;;;2.22;;
61741;SDS011;47650;49.848;9.620;2023-07-31T03:22:34;6.45;;;2.60;;
61741;SDS011;47650;49.848;9.620;2023-07-31T03:25:07;4.45;;;2.33;;
61741;SDS011;47650;49.848;9.620;2023-07-31T03:27:36;6.50;;;2.60;;
61741;SDS011;47650;49.848;9.620;2023-07-31T03:30:17;8.40;;;2.35;;
61741;SDS011;47650;49.848;9.620;2023-07-31T03:32:44;7.88;;;2.33;;
61741;SDS011;47650;49.848;9.620;2023-07-31T03:35:11;5.07;;;2.20;;
61741;SDS011;47650;49.848;9.620;2023-07-31T03:37:37;9.55;;;2.70;;
61741;SDS011;47650;49.848;9.620;2023-07-31T03:40:02;7.43;;;2.50;;
61741;SDS011;47650;49.848;9.620;2023-07-31T03:42:31;5.30;;;2.75;;
61741;SDS011;47650;49.848;9.620;2023-07-31T03:44:56;5.60;;;2.13;;
61741;SDS011;47650;49.848;9.620;2023-07-31T03:47:26;7.38;;;2.70;;
61741;SDS011;47650;49.848;9.620;2023-07-31T03:49:53;7.57;;;3.20;;
61741;SDS011;47650;49.848;9.620;2023-07-31T03:52:19;9.23;;;2.72;;
61741;SDS011;47650;49.848;9.620;2023-07-31T03:54:45;6.63;;;2.30;;
61741;SDS011;47650;49.848;9.620;2023-07-31T03:57:10;6.65;;;2.65;;
61741;SDS011;47650;49.848;9.620;2023-07-31T03:59:38;5.65;;;2.22;;
61741;SDS011;47650;49.848;9.620;2023-07-31T04:02:07;5.10;;;2.42;;
61741;SDS011;47650;49.848;9.620;2023-07-31T04:04:40;10.02;;;2.42;;
61741;SDS011;47650;49.848;9.620;2023-07-31T04:07:05;6.38;;;2.75;;
61741;SDS011;47650;49.848;9.620;2023-07-31T04:09:31;6.70;;;2.75;;
61741;SDS011;47650;49.848;9.620;2023-07-31T04:11:56;5.32;;;2.53;;
61741;SDS011;47650;49.848;9.620;2023-07-31T04:14:21;5.03;;;2.30;;
61741;SDS011;47650;49.848;9.620;2023-07-31T04:16:50;5.65;;;2.70;;
61741;SDS011;47650;49.848;9.620;2023-07-31T04:19:23;5.32;;;2.20;;
61741;SDS011;47650;49.848;9.620;2023-07-31T04:21:49;5.97;;;2.37;;
61741;SDS011;47650;49.848;9.620;2023-07-31T04:24:15;6.10;;;2.60;;
61741;SDS011;47650;49.848;9.620;2023-07-31T04:26:51;9.02;;;2.95;;
61741;SDS011;47650;49.848;9.620;2023-07-31T04:29:32;4.40;;;2.30;;
61741;SDS011;47650;49.848;9.620;2023-07-31T04:31:58;5.97;;;2.28;;
61741;SDS011;47650;49.848;9.620;2023-07-31T04:34:24;6.22;;;2.17;;
61741;SDS011;47650;49.848;9.620;2023-07-31T04:36:49;6.50;;;2.58;;
61741;SDS011;47650;49.848;9.620;2023-07-31T04:39:15;10.02;;;3.05;;
61741;SDS011;47650;49.848;9.620;2023-07-31T04:41:41;4.80;;;2.40;;
61741;SDS011;47650;49.848;9.620;2023-07-31T04:44:06;10.60;;;3.22;;
61741;SDS011;47650;49.848;9.620;2023-07-31T04:46:34;4.63;;;2.42;;
61741;SDS011;47650;49.848;9.620;2023-07-31T04:49:02;6.43;;;2.63;;
61741;SDS011;47650;49.848;9.620;2023-07-31T04:51:28;6.57;;;2.75;;
61741;SDS011;47650;49.848;9.620;2023-07-31T04:53:55;5.35;;;2.30;;
61741;SDS011;47650;49.848;9.620;2023-07-31T04:56:21;6.53;;;2.33;;
61741;SDS011;47650;49.848;9.620;2023-07-31T04:58:47;6.20;;;2.75;;
61741;SDS011;47650;49.848;9.620;2023-07-31T05:01:18;9.20;;;3.72;;
61741;SDS011;47650;49.848;9.620;2023-07-31T05:03:51;8.00;;;2.75;;
61741;SDS011;47650;49.848;9.620;2023-07-31T05:06:17;5.20;;;2.33;;
61741;SDS011;47650;49.848;9.620;2023-07-31T05:08:42;5.05;;;2.08;;
61741;SDS011;47650;49.848;9.620;2023-07-31T05:11:09;5.55;;;2.63;;
61741;SDS011;47650;49.848;9.620;2023-07-31T05:13:35;6.28;;;3.00;;
61741;SDS011;47650;49.848;9.620;2023-07-31T05:16:07;6.28;;;2.72;;
61741;SDS011;47650;49.848;9.620;2023-07-31T05:18:40;5.55;;;2.30;;
61741;SDS011;47650;49.848;9.620;2023-07-31T05:21:05;6.18;;;2.63;;
61741;SDS011;47650;49.848;9.620;2023-07-31T05:23:32;9.88;;;2.70;;
61741;SDS011;47650;49.848;9.620;2023-07-31T05:26:06;7.35;;;2.50;;
61741;SDS011;47650;49.848;9.620;2023-07-31T05:28:33;6.88;;;2.67;;
61741;SDS011;47650;49.848;9.620;2023-07-31T05:33:32;6.32;;;2.35;;
61741;SDS011;47650;49.848;9.620;2023-07-31T05:35:57;4.53;;;2.45;;
61741;SDS011;47650;49.848;9.620;2023-07-31T05:38:24;6.38;;;2.75;;
61741;SDS011;47650;49.848;9.620;2023-07-31T05:40:52;8.43;;;2.75;;
61741;SDS011;47650;49.848;9.620;2023-07-31T05:43:17;6.13;;;2.50;;
61741;SDS011;47650;49.848;9.620;2023-07-31T05:45:43;7.30;;;2.75;;
61741;SDS011;47650;49.848;9.620;2023-07-31T05:48:08;6.45;;;2.75;;
61741;SDS011;47650;49.848;9.620;2023-07-31T05:50:35;7.80;;;3.05;;
61741;SDS011;47650;49.848;9.620;2023-07-31T05:53:04;6.47;;;2.50;;
61741;SDS011;47650;49.848;9.620;2023-07-31T05:55:29;6.03;;;2.33;;
61741;SDS011;47650;49.848;9.620;2023-07-31T05:57:54;5.93;;;2.40;;
61741;SDS011;47650;49.848;9.620;2023-07-31T06:00:20;6.90;;;2.95;;
61741;SDS011;47650;49.848;9.620;2023-07-31T06:02:46;7.40;;;3.47;;
61741;SDS011;47650;49.848;9.620;2023-07-31T06:05:13;6.05;;;2.45;;
61741;SDS011;47650;49.848;9.620;2023-07-31T06:07:40;6.22;;;2.80;;
61741;SDS011;47650;49.848;9.620;2023-07-31T06:10:06;8.27;;;2.45;;
61741;SDS011;47650;49.848;9.620;2023-07-31T06:12:32;7.57;;;3.08;;
61741;SDS011;47650;49.848;9.620;2023-07-31T06:14:58;5.20;;;2.53;;
61741;SDS011;47650;49.848;9.620;2023-07-31T06:17:23;5.53;;;2.03;;
61741;SDS011;47650;49.848;9.620;2023-07-31T06:19:50;7.07;;;2.58;;
61741;SDS011;47650;49.848;9.620;2023-07-31T06:22:19;7.43;;;2.78;;
61741;SDS011;47650;49.848;9.620;2023-07-31T06:24:44;9.10;;;3.47;;
61741;SDS011;47650;49.848;9.620;2023-07-31T06:27:10;6.10;;;2.95;;
61741;SDS011;47650;49.848;9.620;2023-07-31T06:29:36;5.47;;;2.35;;
61741;SDS011;47650;49.848;9.620;2023-07-31T06:32:01;5.90;;;2.70;;
61741;SDS011;47650;49.848;9.620;2023-07-31T06:34:27;6.63;;;2.90;;
61741;SDS011;47650;49.848;9.620;2023-07-31T06:36:52;7.82;;;2.67;;
61741;SDS011;47650;49.848;9.620;2023-07-31T06:39:17;6.20;;;2.50;;
61741;SDS011;47650;49.848;9.620;2023-07-31T06:41:45;5.78;;;3.35;;
61741;SDS011;47650;49.848;9.620;2023-07-31T06:44:12;6.22;;;2.38;;
61741;SDS011;47650;49.848;9.620;2023-07-31T06:46:39;5.30;;;2.85;;
61741;SDS011;47650;49.848;9.620;2023-07-31T06:49:04;5.15;;;2.75;;
61741;SDS011;47650;49.848;9.620;2023-07-31T06:51:29;5.00;;;2.63;;
61741;SDS011;47650;49.848;9.620;2023-07-31T06:53:57;5.50;;;2.53;;
61741;SDS011;47650;49.848;9.620;2023-07-31T06:56:24;7.07;;;2.90;;
61741;SDS011;47650;49.848;9.620;2023-07-31T06:58:49;7.90;;;3.22;;
61741;SDS011;47650;49.848;9.620;2023-07-31T07:01:14;8.73;;;2.83;;
61741;SDS011;47650;49.848;9.620;2023-07-31T07:03:40;4.45;;;2.28;;
61741;SDS011;47650;49.848;9.620;2023-07-31T07:06:06;6.63;;;3.20;;
61741;SDS011;47650;49.848;9.620;2023-07-31T07:08:31;5.28;;;2.35;;
61741;SDS011;47650;49.848;9.620;2023-07-31T07:10:57;4.85;;;2.47;;
61741;SDS011;47650;49.848;9.620;2023-07-31T07:13:22;6.43;;;2.92;;
61741;SDS011;47650;49.848;9.620;2023-07-31T07:15:49;6.72;;;3.03;;
61741;SDS011;47650;49.848;9.620;2023-07-31T07:18:15;6.88;;;2.67;;
61741;SDS011;47650;49.848;9.620;2023-07-31T07:20:45;6.47;;;3.13;;
61741;SDS011;47650;49.848;9.620;2023-07-31T07:23:11;6.57;;;3.08;;
61741;SDS011;47650;49.848;9.620;2023-07-31T07:25:38;5.82;;;2.78;;
61741;SDS011;47650;49.848;9.620;2023-07-31T07:28:04;8.77;;;3.75;;
61741;SDS011;47650;49.848;9.620;2023-07-31T07:30:29;7.28;;;3.05;;
61741;SDS011;47650;49.848;9.620;2023-07-31T07:32:54;6.25;;;2.95;;
61741;SDS011;47650;49.848;9.620;2023-07-31T07:35:27;3.88;;;2.47;;
61741;SDS011;47650;49.848;9.620;2023-07-31T07:40:20;6.35;;;3.05;;
61741;SDS011;47650;49.848;9.620;2023-07-31T07:42:51;4.53;;;2.58;;
61741;SDS011;47650;49.848;9.620;2023-07-31T07:45:17;6.80;;;2.88;;
61741;SDS011;47650;49.848;9.620;2023-07-31T07:47:42;5.50;;;2.85;;
61741;SDS011;47650;49.848;9.620;2023-07-31T07:50:08;5.28;;;2.33;;
61741;SDS011;47650;49.848;9.620;2023-07-31T07:52:36;6.28;;;3.42;;
61741;SDS011;47650;49.848;9.620;2023-07-31T07:55:01;8.63;;;2.72;;
61741;SDS011;47650;49.848;9.620;2023-07-31T07:57:28;7.30;;;3.10;;
61741;SDS011;47650;49.848;9.620;2023-07-31T07:59:54;6.03;;;2.67;;
61741;SDS011;47650;49.848;9.620;2023-07-31T08:02:19;5.13;;;2.60;;
61741;SDS011;47650;49.848;9.620;2023-07-31T08:04:45;7.07;;;3.53;;
61741;SDS011;47650;49.848;9.620;2023-07-31T08:07:11;6.63;;;2.95;;
61741;SDS011;47650;49.848;9.620;2023-07-31T08:09:39;5.78;;;3.00;;
61741;SDS011;47650;49.848;9.620;2023-07-31T08:12:05;8.00;;;3.38;;
61741;SDS011;47650;49.848;9.620;2023-07-31T08:14:31;5.28;;;2.90;;
61741;SDS011;47650;49.848;9.620;2023-07-31T08:16:56;5.68;;;3.08;;
61741;SDS011;47650;49.848;9.620;2023-07-31T08:19:23;5.63;;;3.05;;
61741;SDS011;47650;49.848;9.620;2023-07-31T08:21:48;3.63;;;2.67;;
61741;SDS011;47650;49.848;9.620;2023-07-31T08:24:13;6.88;;;3.00;;
61741;SDS011;47650;49.848;9.620;2023-07-31T08:26:39;4.95;;;2.97;;
61741;SDS011;47650;49.848;9.620;2023-07-31T08:29:06;6.15;;;3.00;;
61741;SDS011;47650;49.848;9.620;2023-07-31T08:31:31;6.53;;;3.10;;
61741;SDS011;47650;49.848;9.620;2023-07-31T08:33:56;6.95;;;3.70;;
61741;SDS011;47650;49.848;9.620;2023-07-31T08:36:25;6.78;;;2.75;;
61741;SDS011;47650;49.848;9.620;2023-07-31T08:38:52;7.40;;;3.10;;
61741;SDS011;47650;49.848;9.620;2023-07-31T08:41:18;5.35;;;2.50;;
61741;SDS011;47650;49.848;9.620;2023-07-31T08:43:43;4.28;;;2.45;;
61741;SDS011;47650;49.848;9.620;2023-07-31T08:46:16;4.38;;;2.83;;
61741;SDS011;47650;49.848;9.620;2023-07-31T08:48:42;8.30;;;3.28;;
61741;SDS011;47650;49.848;9.620;2023-07-31T08:51:09;4.93;;;2.83;;
61741;SDS011;47650;49.848;9.620;2023-07-31T08:53:34;4.82;;;2.80;;
61741;SDS011;47650;49.848;9.620;2023-07-31T08:56:00;6.28;;;3.20;;
61741;SDS011;47650;49.848;9.620;2023-07-31T08:58:27;6.78;;;3.42;;
61741;SDS011;47650;49.848;9.620;2023-07-31T09:00:54;5.38;;;3.40;;
61741;SDS011;47650;49.848;9.620;2023-07-31T09:03:21;4.63;;;3.45;;
61741;SDS011;47650;49.848;9.620;2023-07-31T09:05:50;5.80;;;2.45;;
61741;SDS011;47650;49.848;9.620;2023-07-31T09:08:18;6.65;;;3.30;;
61741;SDS011;47650;49.848;9.620;2023-07-31T09:10:45;8.40;;;3.00;;
61741;SDS011;47650;49.848;9.620;2023-07-31T09:13:15;6.18;;;3.85;;
61741;SDS011;47650;49.848;9.620;2023-07-31T09:15:44;6.88;;;3.10;;
61741;SDS011;47650;49.848;9.620;2023-07-31T09:18:11;6.75;;;3.58;;
61741;SDS011;47650;49.848;9.620;2023-07-31T09:20:39;8.20;;;3.85;;
61741;SDS011;47650;49.848;9.620;2023-07-31T09:23:05;4.25;;;2.80;;
61741;SDS011;47650;49.848;9.620;2023-07-31T09:25:50;5.95;;;3.00;;
61741;SDS011;47650;49.848;9.620;2023-07-31T09:28:18;6.20;;;3.00;;
61741;SDS011;47650;49.848;9.620;2023-07-31T09:30:48;6.03;;;2.60;;
61741;SDS011;47650;49.848;9.620;2023-07-31T09:33:17;4.75;;;3.08;;
61741;SDS011;47650;49.848;9.620;2023-07-31T09:35:43;4.28;;;2.83;;
61741;SDS011;47650;49.848;9.620;2023-07-31T09:38:12;6.68;;;3.22;;
61741;SDS011;47650;49.848;9.620;2023-07-31T09:40:40;4.65;;;2.58;;
61741;SDS011;47650;49.848;9.620;2023-07-31T09:43:12;4.38;;;3.10;;
61741;SDS011;47650;49.848;9.620;2023-07-31T09:45:39;6.40;;;2.60;;
61741;SDS011;47650;49.848;9.620;2023-07-31T09:48:09;7.45;;;3.20;;
61741;SDS011;47650;49.848;9.620;2023-07-31T09:50:46;4.47;;;3.00;;
61741;SDS011;47650;49.848;9.620;2023-07-31T09:53:13;5.80;;;2.80;;
61741;SDS011;47650;49.848;9.620;2023-07-31T09:55:41;6.53;;;3.35;;
61741;SDS011;47650;49.848;9.620;2023-07-31T09:58:09;5.78;;;2.83;;
61741;SDS011;47650;49.848;9.620;2023-07-31T10:00:35;5.07;;;2.97;;
61741;SDS011;47650;49.848;9.620;2023-07-31T10:03:06;7.78;;;3.53;;
61741;SDS011;47650;49.848;9.620;2023-07-31T10:05:35;6.38;;;3.20;;
61741;SDS011;47650;49.848;9.620;2023-07-31T10:08:06;5.53;;;3.30;;
61741;SDS011;47650;49.848;9.620;2023-07-31T10:10:38;6.15;;;3.05;;
61741;SDS011;47650;49.848;9.620;2023-07-31T10:13:06;4.30;;;2.58;;
61741;SDS011;47650;49.848;9.620;2023-07-31T10:15:32;5.75;;;3.05;;
61741;SDS011;47650;49.848;9.620;2023-07-31T10:17:59;5.90;;;2.92;;
61741;SDS011;47650;49.848;9.620;2023-07-31T10:20:26;6.25;;;2.85;;
61741;SDS011;47650;49.848;9.620;2023-07-31T10:22:52;8.50;;;3.25;;
61741;SDS011;47650;49.848;9.620;2023-07-31T10:25:20;4.60;;;2.90;;
61741;SDS011;47650;49.848;9.620;2023-07-31T10:27:47;4.93;;;3.20;;
61741;SDS011;47650;49.848;9.620;2023-07-31T10:30:14;5.63;;;3.10;;
61741;SDS011;47650;49.848;9.620;2023-07-31T10:32:41;4.88;;;2.53;;
61741;SDS011;47650;49.848;9.620;2023-07-31T10:35:08;4.95;;;3.00;;
61741;SDS011;47650;49.848;9.620;2023-07-31T10:37:41;6.68;;;3.28;;
61741;SDS011;47650;49.848;9.620;2023-07-31T10:40:12;5.18;;;3.00;;
61741;SDS011;47650;49.848;9.620;2023-07-31T10:42:49;6.90;;;3.40;;
61741;SDS011;47650;49.848;9.620;2023-07-31T10:47:59;4.70;;;3.20;;
61741;SDS011;47650;49.848;9.620;2023-07-31T10:50:26;3.97;;;2.75;;
61741;SDS011;47650;49.848;9.620;2023-07-31T10:52:53;4.13;;;2.45;;
61741;SDS011;47650;49.848;9.620;2023-07-31T10:55:29;6.78;;;3.03;;
61741;SDS011;47650;49.848;9.620;2023-07-31T10:58:11;5.45;;;2.80;;
61741;SDS011;47650;49.848;9.620;2023-07-31T11:00:38;5.70;;;3.25;;
61741;SDS011;47650;49.848;9.620;2023-07-31T11:03:05;3.72;;;2.38;;
61741;SDS011;47650;49.848;9.620;2023-07-31T11:08:23;4.05;;;2.85;;
61741;SDS011;47650;49.848;9.620;2023-07-31T11:11:04;4.07;;;2.67;;
61741;SDS011;47650;49.848;9.620;2023-07-31T11:13:31;5.57;;;2.97;;
61741;SDS011;47650;49.848;9.620;2023-07-31T11:15:58;4.63;;;2.60;;
61741;SDS011;47650;49.848;9.620;2023-07-31T11:18:24;5.32;;;2.97;;
61741;SDS011;47650;49.848;9.620;2023-07-31T11:20:51;5.90;;;3.00;;
61741;SDS011;47650;49.848;9.620;2023-07-31T11:23:17;4.57;;;3.00;;
61741;SDS011;47650;49.848;9.620;2023-07-31T11:25:44;5.85;;;2.75;;
61741;SDS011;47650;49.848;9.620;2023-07-31T11:28:11;7.28;;;3.60;;
61741;SDS011;47650;49.848;9.620;2023-07-31T11:30:38;7.20;;;2.70;;
61741;SDS011;47650;49.848;9.620;2023-07-31T11:33:05;6.65;;;2.80;;
61741;SDS011;47650;49.848;9.620;2023-07-31T11:35:35;6.68;;;3.10;;
61741;SDS011;47650;49.848;9.620;2023-07-31T11:38:20;4.78;;;3.03;;
61741;SDS011;47650;49.848;9.620;2023-07-31T11:40:50;7.50;;;3.42;;
61741;SDS011;47650;49.848;9.620;2023-07-31T11:43:17;7.57;;;3.53;;
61741;SDS011;47650;49.848;9.620;2023-07-31T11:45:45;5.53;;;2.92;;
61741;SDS011;47650;49.848;9.620;2023-07-31T11:48:22;5.82;;;2.83;;
61741;SDS011;47650;49.848;9.620;2023-07-31T11:50:52;6.30;;;3.33;;
61741;SDS011;47650;49.848;9.620;2023-07-31T11:53:20;4.82;;;3.00;;
61741;SDS011;47650;49.848;9.620;2023-07-31T11:55:49;6.03;;;2.92;;
61741;SDS011;47650;49.848;9.620;2023-07-31T11:58:15;7.43;;;3.22;;
61741;SDS011;47650;49.848;9.620;2023-07-31T12:00:44;8.07;;;3.53;;
61741;SDS011;47650;49.848;9.620;2023-07-31T12:03:10;8.63;;;3.38;;
61741;SDS011;47650;49.848;9.620;2023-07-31T12:05:37;6.80;;;3.25;;
61741;SDS011;47650;49.848;9.620;2023-07-31T12:08:08;7.47;;;3.38;;
61741;SDS011;47650;49.848;9.620;2023-07-31T12:10:36;5.75;;;3.10;;
61741;SDS011;47650;49.848;9.620;2023-07-31T12:13:08;6.80;;;3.70;;
61741;SDS011;47650;49.848;9.620;2023-07-31T12:15:43;5.40;;;3.55;;
61741;SDS011;47650;49.848;9.620;2023-07-31T12:18:10;6.22;;;3.88;;
61741;SDS011;47650;49.848;9.620;2023-07-31T12:20:41;7.80;;;3.28;;
61741;SDS011;47650;49.848;9.620;2023-07-31T12:23:27;5.43;;;3.55;;
61741;SDS011;47650;49.848;9.620;2023-07-31T12:28:45;9.02;;;3.22;;
61741;SDS011;47650;49.848;9.620;2023-07-31T12:31:22;6.72;;;3.50;;
61741;SDS011;47650;49.848;9.620;2023-07-31T12:33:48;7.68;;;3.40;;
61741;SDS011;47650;49.848;9.620;2023-07-31T12:36:15;7.25;;;3.90;;
61741;SDS011;47650;49.848;9.620;2023-07-31T12:38:44;7.57;;;3.53;;
61741;SDS011;47650;49.848;9.620;2023-07-31T12:41:11;9.05;;;4.30;;
61741;SDS011;47650;49.848;9.620;2023-07-31T12:43:39;6.88;;;3.35;;
61741;SDS011;47650;49.848;9.620;2023-07-31T12:46:06;7.05;;;3.67;;
61741;SDS011;47650;49.848;9.620;2023-07-31T12:48:36;8.68;;;4.20;;
61741;SDS011;47650;49.848;9.620;2023-07-31T12:51:05;7.28;;;3.33;;
61741;SDS011;47650;49.848;9.620;2023-07-31T12:53:31;5.97;;;3.63;;
61741;SDS011;47650;49.848;9.620;2023-07-31T12:55:58;7.03;;;3.60;;
61741;SDS011;47650;49.848;9.620;2023-07-31T12:58:25;7.28;;;3.30;;
61741;SDS011;47650;49.848;9.620;2023-07-31T13:00:50;5.47;;;2.80;;
61741;SDS011;47650;49.848;9.620;2023-07-31T13:03:17;5.65;;;3.30;;
61741;SDS011;47650;49.848;9.620;2023-07-31T13:05:42;7.65;;;3.95;;
61741;SDS011;47650;49.848;9.620;2023-07-31T13:08:08;7.05;;;3.50;;
61741;SDS011;47650;49.848;9.620;2023-07-31T13:10:40;6.72;;;3.08;;
61741;SDS011;47650;49.848;9.620;2023-07-31T13:13:13;6.50;;;3.53;;
61741;SDS011;47650;49.848;9.620;2023-07-31T13:15:39;4.88;;;3.03;;
61741;SDS011;47650;49.848;9.620;2023-07-31T13:18:05;5.57;;;3.20;;
61741;SDS011;47650;49.848;9.620;2023-07-31T13:20:30;4.85;;;3.20;;
61741;SDS011;47650;49.848;9.620;2023-07-31T13:22:56;7.10;;;3.40;;
61741;SDS011;47650;49.848;9.620;2023-07-31T13:25:22;7.97;;;2.92;;
61741;SDS011;47650;49.848;9.620;2023-07-31T13:27:47;9.80;;;3.95;;
61741;SDS011;47650;49.848;9.620;2023-07-31T13:30:13;10.30;;;3.70;;
61741;SDS011;47650;49.848;9.620;2023-07-31T13:32:38;6.17;;;3.20;;
61741;SDS011;47650;49.848;9.620;2023-07-31T13:35:06;4.65;;;3.10;;
61741;SDS011;47650;49.848;9.620;2023-07-31T13:37:34;5.25;;;2.97;;
61741;SDS011;47650;49.848;9.620;2023-07-31T13:39:59;6.32;;;3.15;;
61741;SDS011;47650;49.848;9.620;2023-07-31T13:42:27;5.20;;;3.47;;
61741;SDS011;47650;49.848;9.620;2023-07-31T13:44:54;5.85;;;3.13;;
61741;SDS011;47650;49.848;9.620;2023-07-31T13:47:21;8.05;;;3.35;;
61741;SDS011;47650;49.848;9.620;2023-07-31T13:49:47;5.53;;;3.03;;
61741;SDS011;47650;49.848;9.620;2023-07-31T13:52:14;5.32;;;2.97;;
61741;SDS011;47650;49.848;9.620;2023-07-31T13:54:39;6.97;;;3.45;;
61741;SDS011;47650;49.848;9.620;2023-07-31T13:57:05;4.70;;;3.17;;
61741;SDS011;47650;49.848;9.620;2023-07-31T13:59:30;4.90;;;3.08;;
61741;SDS011;47650;49.848;9.620;2023-07-31T14:01:56;5.80;;;3.13;;
61741;SDS011;47650;49.848;9.620;2023-07-31T14:04:21;6.43;;;2.78;;
61741;SDS011;47650;49.848;9.620;2023-07-31T14:06:48;8.23;;;3.38;;
61741;SDS011;47650;49.848;9.620;2023-07-31T14:09:17;8.45;;;3.72;;
61741;SDS011;47650;49.848;9.620;2023-07-31T14:11:43;8.25;;;3.30;;
61741;SDS011;47650;49.848;9.620;2023-07-31T14:14:13;4.35;;;3.10;;
61741;SDS011;47650;49.848;9.620;2023-07-31T14:16:39;11.90;;;3.75;;
61741;SDS011;47650;49.848;9.620;2023-07-31T14:19:05;5.18;;;2.95;;
61741;SDS011;47650;49.848;9.620;2023-07-31T14:21:32;6.65;;;3.38;;
61741;SDS011;47650;49.848;9.620;2023-07-31T14:23:57;6.10;;;3.47;;
61741;SDS011;47650;49.848;9.620;2023-07-31T14:26:23;6.45;;;3.30;;
61741;SDS011;47650;49.848;9.620;2023-07-31T14:28:49;8.43;;;3.40;;
61741;SDS011;47650;49.848;9.620;2023-07-31T14:31:17;5.65;;;2.92;;
61741;SDS011;47650;49.848;9.620;2023-07-31T14:33:43;4.90;;;3.03;;
61741;SDS011;47650;49.848;9.620;2023-07-31T14:36:08;6.63;;;3.63;;
61741;SDS011;47650;49.848;9.620;2023-07-31T14:38:40;5.00;;;3.38;;
61741;SDS011;47650;49.848;9.620;2023-07-31T14:41:05;5.97;;;3.20;;
61741;SDS011;47650;49.848;9.620;2023-07-31T14:43:30;7.93;;;3.17;;
61741;SDS011;47650;49.848;9.620;2023-07-31T14:45:55;7.55;;;2.83;;
61741;SDS011;47650;49.848;9.620;2023-07-31T14:48:24;6.05;;;2.90;;
61741;SDS011;47650;49.848;9.620;2023-07-31T14:50:49;6.70;;;3.90;;
61741;SDS011;47650;49.848;9.620;2023-07-31T14:53:17;6.78;;;3.60;;
61741;SDS011;47650;49.848;9.620;2023-07-31T14:55:42;4.38;;;3.13;;
61741;SDS011;47650;49.848;9.620;2023-07-31T14:58:08;5.90;;;2.90;;
61741;SDS011;47650;49.848;9.620;2023-07-31T15:00:35;6.10;;;2.95;;
61741;SDS011;47650;49.848;9.620;2023-07-31T15:03:01;7.10;;;3.25;;
61741;SDS011;47650;49.848;9.620;2023-07-31T15:05:27;7.18;;;3.10;;
61741;SDS011;47650;49.848;9.620;2023-07-31T15:07:52;4.78;;;2.90;;
61741;SDS011;47650;49.848;9.620;2023-07-31T15:10:23;6.00;;;3.90;;
61741;SDS011;47650;49.848;9.620;2023-07-31T15:12:50;6.45;;;3.28;;
61741;SDS011;47650;49.848;9.620;2023-07-31T15:15:17;4.45;;;3.17;;
61741;SDS011;47650;49.848;9.620;2023-07-31T15:17:44;6.50;;;3.35;;
61741;SDS011;47650;49.848;9.620;2023-07-31T15:20:09;7.15;;;3.03;;
61741;SDS011;47650;49.848;9.620;2023-07-31T15:22:37;8.68;;;3.85;;